Terminal Aerodrome Forecast
Issued by NWS Duluth, MN

Home | Current Version | Previous Version | Text Only | Print | Product List | Glossary On
Versions: 1 2 3 4 5 6 7 8 9 10 11 12 13 14 15 16 17 18 19 20 21 22 23 24 25 26 27 28 29
000
FTUS43 KDLH 102300 RRA
TAFDLH
TAF
KDLH 102354Z 1100/1124 13007KT P6SM SCT060 BKN150
     FM110600 15008KT P6SM VCSH SCT050 BKN100 WS020/19035KT
     FM110900 18012KT P6SM -SHRA VCTS SCT035CB OVC100
      TEMPO 1110/1114 3SM -TSRA BR BKN015CB
     FM111400 22011KT P6SM -SHRA BKN040 OVC080
     FM111800 24009KT P6SM SCT080
     FM112100 25009KT P6SM VCTS BKN045CB=

USA.gov is the U.S. government's official web portal to all federal, state and local government web resources and services.